createdAt,value
2018-11-28T00:00:17.196Z,19.90
2018-11-28T00:01:17.182Z,19.30
2018-11-28T00:02:17.167Z,20.50
2018-11-28T00:03:17.192Z,19.90
2018-11-28T00:04:17.170Z,19.70
2018-11-28T00:05:17.161Z,20.30
2018-11-28T00:06:17.143Z,21.10
2018-11-28T00:07:17.159Z,20.10
2018-11-28T00:08:17.334Z,19.70
2018-11-28T00:09:17.395Z,20.80
2018-11-28T00:10:17.328Z,20.10
2018-11-28T00:11:17.124Z,20.40
2018-11-28T00:12:17.120Z,20.90
2018-11-28T00:13:17.133Z,20.70
2018-11-28T00:14:17.097Z,20.00
2018-11-28T00:15:17.094Z,20.40
2018-11-28T00:16:17.085Z,20.40
2018-11-28T00:17:17.079Z,19.90
2018-11-28T00:18:17.091Z,20.10
2018-11-28T00:19:17.082Z,20.20
2018-11-28T00:20:17.067Z,20.00
2018-11-28T00:21:17.086Z,20.50
2018-11-28T00:22:17.051Z,20.90
2018-11-28T00:23:17.065Z,20.70
2018-11-28T00:24:17.044Z,20.40
2018-11-28T00:25:17.237Z,20.90
2018-11-28T00:26:17.029Z,21.10
2018-11-28T00:27:17.036Z,21.10
2018-11-28T00:28:17.229Z,20.40
2018-11-28T00:29:17.015Z,19.60
2018-11-28T00:30:18.080Z,20.70
2018-11-28T00:31:17.073Z,20.60
2018-11-28T00:32:17.010Z,20.10
2018-11-28T00:33:17.004Z,20.80
2018-11-28T00:34:16.994Z,20.70
2018-11-28T00:35:16.989Z,21.20
2018-11-28T00:36:16.987Z,20.30
2018-11-28T00:37:16.981Z,21.80
2018-11-28T00:38:16.971Z,21.00
2018-11-28T00:39:17.161Z,21.20
2018-11-28T00:40:16.951Z,21.00
2018-11-28T00:41:16.947Z,20.10
2018-11-28T00:42:16.949Z,21.30
2018-11-28T00:43:17.147Z,20.90
2018-11-28T00:44:16.938Z,20.50
2018-11-28T00:45:16.929Z,20.60
2018-11-28T00:46:16.918Z,21.20
2018-11-28T00:47:16.911Z,20.30
2018-11-28T00:48:16.906Z,20.50
2018-11-28T00:49:17.102Z,20.20
2018-11-28T00:50:16.919Z,20.50
2018-11-28T00:51:16.888Z,20.70
2018-11-28T00:52:16.881Z,20.50
2018-11-28T00:53:17.081Z,20.30
2018-11-28T00:54:17.072Z,21.20
2018-11-28T00:55:16.878Z,21.80
2018-11-28T00:56:16.858Z,20.90
2018-11-28T00:57:16.865Z,21.50
2018-11-28T00:58:16.851Z,20.20
2018-11-28T00:59:16.852Z,21.00
2018-11-28T01:00:16.838Z,21.50
2018-11-28T01:01:16.846Z,21.40
2018-11-28T01:02:17.027Z,21.20
2018-11-28T01:03:16.871Z,20.50
2018-11-28T01:04:16.829Z,21.40
2018-11-28T01:05:16.814Z,21.40
2018-11-28T01:06:16.816Z,20.30
2018-11-28T01:07:16.798Z,20.70
2018-11-28T01:08:16.794Z,21.30
2018-11-28T01:09:16.784Z,21.20
2018-11-28T01:10:16.782Z,20.50
2018-11-28T01:11:16.773Z,21.70
2018-11-28T01:12:16.768Z,20.70
2018-11-28T01:13:16.772Z,21.20
2018-11-28T01:14:16.762Z,21.60
2018-11-28T01:15:16.958Z,22.30
2018-11-28T01:16:16.769Z,21.20
2018-11-28T01:17:16.741Z,22.80
2018-11-28T01:18:16.746Z,21.30
2018-11-28T01:19:16.742Z,22.10
2018-11-28T01:20:16.728Z,20.70
2018-11-28T01:21:16.719Z,20.60
2018-11-28T01:22:16.731Z,21.00
2018-11-28T01:23:16.718Z,21.70
2018-11-28T01:24:16.702Z,21.00
2018-11-28T01:25:16.914Z,21.60
2018-11-28T01:26:16.702Z,20.70
2018-11-28T01:27:16.684Z,21.10
2018-11-28T01:28:16.885Z,21.70
2018-11-28T01:29:16.687Z,22.00
2018-11-28T01:30:16.669Z,21.40
2018-11-28T01:31:16.674Z,21.90
2018-11-28T01:32:16.667Z,21.90
2018-11-28T01:33:16.650Z,21.70
2018-11-28T01:34:16.672Z,22.40
2018-11-28T01:35:16.643Z,22.30
2018-11-28T01:36:16.651Z,21.80
2018-11-28T01:37:16.843Z,21.70
2018-11-28T01:38:16.629Z,20.50
2018-11-28T01:39:16.633Z,20.90
2018-11-28T01:40:16.626Z,21.70
2018-11-28T01:41:16.625Z,20.80
2018-11-28T01:42:16.618Z,21.90
2018-11-28T01:43:16.608Z,21.70
2018-11-28T01:44:16.627Z,22.70
2018-11-28T01:45:16.596Z,22.60
2018-11-28T01:46:16.781Z,22.00
2018-11-28T01:47:16.573Z,22.50
2018-11-28T01:48:16.566Z,21.60
2018-11-28T01:49:16.781Z,22.70
2018-11-28T01:50:16.556Z,21.70
2018-11-28T01:51:16.552Z,22.10
2018-11-28T01:52:16.545Z,21.50
2018-11-28T01:53:16.542Z,21.40
2018-11-28T01:54:16.535Z,21.40
2018-11-28T01:55:16.539Z,22.90
2018-11-28T01:56:16.524Z,21.90
2018-11-28T01:57:16.520Z,23.20
2018-11-28T01:58:16.715Z,22.10
2018-11-28T01:59:16.717Z,22.00
2018-11-28T02:00:16.710Z,21.30
2018-11-28T02:01:16.494Z,22.00
2018-11-28T02:02:16.702Z,22.00
2018-11-28T02:03:16.481Z,22.20
2018-11-28T02:04:16.478Z,22.30
2018-11-28T02:05:16.473Z,22.20
2018-11-28T02:06:16.467Z,22.80
2018-11-28T02:07:16.665Z,22.60
2018-11-28T02:08:16.459Z,22.10
2018-11-28T02:09:16.459Z,21.60
2018-11-28T02:10:16.456Z,22.60
2018-11-28T02:11:16.440Z,23.30
2018-11-28T02:12:16.445Z,22.10
2018-11-28T02:13:16.429Z,22.50
2018-11-28T02:14:16.627Z,21.40
2018-11-28T02:15:16.415Z,22.10
2018-11-28T02:16:16.412Z,22.70
2018-11-28T02:17:16.413Z,22.80
2018-11-28T02:18:16.402Z,21.90
2018-11-28T02:19:16.413Z,22.00
2018-11-28T02:20:16.402Z,23.00
2018-11-28T02:21:16.585Z,22.10
2018-11-28T02:22:16.385Z,22.90
2018-11-28T02:23:16.373Z,22.60
2018-11-28T02:24:16.376Z,23.60
2018-11-28T02:25:16.360Z,21.80
2018-11-28T02:26:16.556Z,22.70
2018-11-28T02:27:16.360Z,22.50
2018-11-28T02:28:16.353Z,22.90
2018-11-28T02:29:16.349Z,22.80
2018-11-28T02:30:16.354Z,22.40
2018-11-28T02:31:16.324Z,22.80
2018-11-28T02:32:16.335Z,22.90
2018-11-28T02:33:16.520Z,22.70
2018-11-28T02:34:16.524Z,22.20
2018-11-28T02:35:16.519Z,22.60
2018-11-28T02:36:16.311Z,23.00
2018-11-28T02:37:16.302Z,22.30
2018-11-28T02:38:16.298Z,22.20
2018-11-28T02:39:16.280Z,23.00
2018-11-28T02:40:16.480Z,22.00
2018-11-28T02:41:16.271Z,22.00
2018-11-28T02:42:16.275Z,22.00
2018-11-28T02:43:16.261Z,22.60
2018-11-28T02:44:16.260Z,23.40
2018-11-28T02:45:16.247Z,22.80
2018-11-28T02:46:16.243Z,21.20
2018-11-28T02:47:16.235Z,23.20
2018-11-28T02:48:16.230Z,22.50
2018-11-28T02:49:16.228Z,23.00
2018-11-28T02:50:16.231Z,22.70
2018-11-28T02:51:16.231Z,21.70
2018-11-28T02:52:16.430Z,22.20
2018-11-28T02:53:16.214Z,22.90
2018-11-28T02:54:16.197Z,21.30
2018-11-28T02:55:16.215Z,22.40
2018-11-28T02:56:16.187Z,23.30
2018-11-28T02:57:16.182Z,22.50
2018-11-28T02:58:16.379Z,23.30
2018-11-28T02:59:16.370Z,22.50
2018-11-28T03:00:16.167Z,23.70
2018-11-28T03:01:16.157Z,22.20
2018-11-28T03:02:16.165Z,22.50
2018-11-28T03:03:16.351Z,22.70
2018-11-28T03:04:16.151Z,22.30
2018-11-28T03:05:16.137Z,22.20
2018-11-28T03:06:16.140Z,23.30
2018-11-28T03:07:16.124Z,22.60
2018-11-28T03:08:16.121Z,22.80
2018-11-28T03:09:16.111Z,22.20
2018-11-28T03:10:16.106Z,22.60
2018-11-28T03:11:16.110Z,22.30
2018-11-28T03:12:16.095Z,22.80
2018-11-28T03:13:16.090Z,22.00
2018-11-28T03:14:16.084Z,22.60
2018-11-28T03:15:16.078Z,23.30
2018-11-28T03:16:16.073Z,22.80
2018-11-28T03:17:16.080Z,22.40
2018-11-28T03:18:16.062Z,23.10
2018-11-28T03:19:16.258Z,22.10
2018-11-28T03:20:16.053Z,22.60
2018-11-28T03:21:16.042Z,22.40
2018-11-28T03:22:16.051Z,22.70
2018-11-28T03:23:16.046Z,22.00
2018-11-28T03:24:16.029Z,23.10
2018-11-28T03:25:16.062Z,22.20
2018-11-28T03:26:16.031Z,22.90
2018-11-28T03:27:16.020Z,22.40
2018-11-28T03:28:16.006Z,22.90
2018-11-28T03:29:16.009Z,22.90
2018-11-28T03:30:16.021Z,21.80
2018-11-28T03:31:16.211Z,22.20
2018-11-28T03:32:15.990Z,22.20
2018-11-28T03:33:15.982Z,22.40
2018-11-28T03:34:15.979Z,22.90
2018-11-28T03:35:15.978Z,22.60
2018-11-28T03:36:15.962Z,23.50
2018-11-28T03:37:15.965Z,22.40
2018-11-28T03:38:15.949Z,23.20
2018-11-28T03:39:15.941Z,22.20
2018-11-28T03:40:15.952Z,22.70
2018-11-28T03:41:15.931Z,22.70
2018-11-28T03:42:15.926Z,23.50
2018-11-28T03:43:15.921Z,22.90
2018-11-28T03:44:15.924Z,22.60
2018-11-28T03:45:15.911Z,23.10
2018-11-28T03:46:15.917Z,24.10
2018-11-28T03:47:15.913Z,23.10
2018-11-28T03:48:15.895Z,22.70
2018-11-28T03:49:15.890Z,23.20
2018-11-28T03:50:15.881Z,22.60
2018-11-28T03:51:15.874Z,23.60
2018-11-28T03:52:15.879Z,22.70
2018-11-28T03:53:16.073Z,22.80
2018-11-28T03:54:15.862Z,22.80
2018-11-28T03:55:15.880Z,23.20
2018-11-28T03:56:15.851Z,22.60
2018-11-28T03:57:15.858Z,22.70
2018-11-28T03:58:16.042Z,22.80
2018-11-28T03:59:15.833Z,22.70
2018-11-28T04:00:15.843Z,22.70
2018-11-28T04:01:16.039Z,21.80
2018-11-28T04:02:15.829Z,22.50
2018-11-28T04:03:16.024Z,23.10
2018-11-28T04:04:15.807Z,22.50
2018-11-28T04:05:15.804Z,23.30
2018-11-28T04:06:15.806Z,22.70
2018-11-28T04:07:15.795Z,22.50
2018-11-28T04:08:15.794Z,22.00
2018-11-28T04:09:15.777Z,22.00
2018-11-28T04:10:15.788Z,22.10
2018-11-28T04:11:15.783Z,22.90
2018-11-28T04:12:15.765Z,22.20
2018-11-28T04:13:15.768Z,22.90
2018-11-28T04:14:15.752Z,23.20
2018-11-28T04:15:15.764Z,23.50
2018-11-28T04:16:15.747Z,22.60
2018-11-28T04:17:15.737Z,22.40
2018-11-28T04:18:15.728Z,22.60
2018-11-28T04:19:15.733Z,21.90
2018-11-28T04:20:15.717Z,22.60
2018-11-28T04:21:15.722Z,22.40
2018-11-28T04:22:15.719Z,22.70
2018-11-28T04:23:15.719Z,23.30
2018-11-28T04:24:15.700Z,22.50
2018-11-28T04:25:15.690Z,23.10
2018-11-28T04:26:15.684Z,22.10
2018-11-28T04:27:15.676Z,22.90
2018-11-28T04:28:15.683Z,22.90
2018-11-28T04:29:15.675Z,22.60
2018-11-28T04:30:15.661Z,22.80
2018-11-28T04:31:15.655Z,23.00
2018-11-28T04:32:15.660Z,22.40
2018-11-28T04:33:15.658Z,22.40
2018-11-28T04:34:15.654Z,22.10
2018-11-28T04:35:15.655Z,23.70
2018-11-28T04:36:15.653Z,23.00
2018-11-28T04:37:15.644Z,23.20
2018-11-28T04:38:15.633Z,23.50
2018-11-28T04:39:15.624Z,22.00
2018-11-28T04:40:15.616Z,21.50
2018-11-28T04:41:15.603Z,22.90
2018-11-28T04:42:15.594Z,23.70
2018-11-28T04:43:15.588Z,23.20
2018-11-28T04:44:15.607Z,22.30
2018-11-28T04:45:15.590Z,22.80
2018-11-28T04:46:15.597Z,21.80
2018-11-28T04:47:15.571Z,23.00
2018-11-28T04:48:15.614Z,22.60
2018-11-28T04:49:15.560Z,22.40
2018-11-28T04:50:15.558Z,22.80
2018-11-28T04:51:15.544Z,22.80
2018-11-28T04:52:15.534Z,23.30
2018-11-28T04:53:15.542Z,23.40
2018-11-28T04:54:15.542Z,23.10
2018-11-28T04:55:15.532Z,23.20
2018-11-28T04:56:15.528Z,23.20
2018-11-28T04:57:15.521Z,23.00
2018-11-28T04:58:15.714Z,24.10
2018-11-28T04:59:15.509Z,23.20
2018-11-28T05:00:15.537Z,23.70
2018-11-28T05:01:15.485Z,23.50
2018-11-28T05:02:15.485Z,22.90
2018-11-28T05:03:15.502Z,23.50
2018-11-28T05:04:15.480Z,23.50
2018-11-28T05:05:15.465Z,24.00
2018-11-28T05:06:15.463Z,24.90
2018-11-28T05:07:15.494Z,24.00
2018-11-28T05:08:15.469Z,23.90
2018-11-28T05:09:15.447Z,24.30
2018-11-28T05:10:15.442Z,24.10
2018-11-28T05:11:15.434Z,23.90
2018-11-28T05:12:15.428Z,24.10
2018-11-28T05:13:15.420Z,24.50
2018-11-28T05:14:15.414Z,23.80
2018-11-28T05:15:15.410Z,24.00
2018-11-28T05:16:15.401Z,24.60
2018-11-28T05:17:15.403Z,24.00
2018-11-28T05:18:15.391Z,24.30
2018-11-28T05:19:15.382Z,24.30
2018-11-28T05:20:15.381Z,24.00
2018-11-28T05:21:15.376Z,24.00
2018-11-28T05:22:15.369Z,24.60
2018-11-28T05:23:15.361Z,22.90
2018-11-28T05:24:15.362Z,24.80
2018-11-28T05:25:15.555Z,25.00
2018-11-28T05:26:15.360Z,23.80
2018-11-28T05:27:15.338Z,24.00
2018-11-28T05:28:15.337Z,25.40
2018-11-28T05:29:15.332Z,24.30
2018-11-28T05:30:15.333Z,24.70
2018-11-28T05:31:15.319Z,24.50
2018-11-28T05:32:15.316Z,25.30
2018-11-28T05:33:15.311Z,24.90
2018-11-28T05:34:15.314Z,24.50
2018-11-28T05:35:15.306Z,25.30
2018-11-28T05:36:15.290Z,24.70
2018-11-28T05:37:15.296Z,24.90
2018-11-28T05:38:15.280Z,24.00
2018-11-28T05:39:15.272Z,24.70
2018-11-28T05:40:15.267Z,24.40
2018-11-28T05:41:15.263Z,24.10
2018-11-28T05:42:15.256Z,25.90
2018-11-28T05:43:15.261Z,23.80
2018-11-28T05:44:15.249Z,24.10
2018-11-28T05:45:15.246Z,24.10
2018-11-28T05:46:15.232Z,25.30
2018-11-28T05:47:15.237Z,25.90
2018-11-28T05:48:15.275Z,24.40
2018-11-28T05:49:48.637Z,23.70
2018-11-28T05:50:15.215Z,24.50
2018-11-28T05:51:15.205Z,24.50
2018-11-28T05:52:15.200Z,24.50
2018-11-28T05:53:15.196Z,24.10
2018-11-28T05:54:15.199Z,25.20
2018-11-28T05:55:15.185Z,24.20
2018-11-28T05:56:15.180Z,24.00
2018-11-28T05:57:15.174Z,24.10
2018-11-28T05:58:15.165Z,23.70
2018-11-28T05:59:15.163Z,24.10
2018-11-28T06:00:15.154Z,23.50
2018-11-28T06:02:59.110Z,23.50
2018-11-28T06:03:58.881Z,24.00
2018-11-28T06:04:58.879Z,24.80
2018-11-28T06:05:58.872Z,24.30
2018-11-28T06:06:58.872Z,24.60
2018-11-28T06:07:58.861Z,25.20
2018-11-28T06:08:58.850Z,24.20
2018-11-28T06:09:58.844Z,24.20
2018-11-28T06:10:58.838Z,23.60
2018-11-28T06:11:58.834Z,24.10
2018-11-28T06:12:58.827Z,24.30
2018-11-28T06:13:58.830Z,25.30
2018-11-28T06:14:58.817Z,24.10
2018-11-28T06:15:58.836Z,24.50
2018-11-28T06:16:58.806Z,23.70
2018-11-28T06:17:58.800Z,24.90
2018-11-28T06:18:58.806Z,24.20
2018-11-28T06:19:58.864Z,24.50
2018-11-28T06:20:58.789Z,24.40
2018-11-28T06:21:58.780Z,24.20
2018-11-28T06:22:58.772Z,24.70
2018-11-28T06:23:58.971Z,23.90
2018-11-28T06:24:58.772Z,24.20
2018-11-28T06:25:58.765Z,24.20
2018-11-28T06:26:58.751Z,23.50
2018-11-28T06:27:58.742Z,24.70
2018-11-28T06:28:58.739Z,24.30
2018-11-28T06:29:58.939Z,24.50
2018-11-28T06:30:58.727Z,24.40
2018-11-28T06:31:58.732Z,24.10
2018-11-28T06:32:58.716Z,22.90
2018-11-28T06:33:58.712Z,24.20
2018-11-28T06:34:58.715Z,23.50
2018-11-28T06:35:58.714Z,24.30
2018-11-28T06:36:58.697Z,23.50
2018-11-28T06:37:58.706Z,23.70
2018-11-28T06:38:58.699Z,24.20
2018-11-28T06:39:58.681Z,24.00
2018-11-28T06:40:58.674Z,23.60
2018-11-28T06:41:58.666Z,23.80
2018-11-28T06:42:58.676Z,23.10
2018-11-28T06:43:58.684Z,24.30
2018-11-28T06:44:58.661Z,23.90
2018-11-28T06:45:58.658Z,23.10
2018-11-28T06:46:58.840Z,23.70
2018-11-28T06:47:58.647Z,24.10
2018-11-28T06:48:58.645Z,24.20
2018-11-28T06:49:58.637Z,24.10
2018-11-28T06:50:58.619Z,24.90
2018-11-28T06:51:58.632Z,23.80
2018-11-28T06:52:58.607Z,23.40
2018-11-28T06:53:58.801Z,23.30
2018-11-28T06:54:58.596Z,23.20
2018-11-28T06:55:58.590Z,24.90
2018-11-28T06:56:58.586Z,25.10
2018-11-28T06:57:58.581Z,24.00
2018-11-28T06:58:58.578Z,23.80
2018-11-28T06:59:58.569Z,23.10
2018-11-28T07:00:58.580Z,23.20
2018-11-28T07:01:58.571Z,24.80
2018-11-28T07:02:58.577Z,23.50
2018-11-28T07:03:58.572Z,23.50
2018-11-28T07:04:58.542Z,22.10
2018-11-28T07:05:58.534Z,23.90
2018-11-28T07:06:58.535Z,24.20
2018-11-28T07:07:58.522Z,23.90
2018-11-28T07:08:58.542Z,23.50
2018-11-28T07:09:58.528Z,23.90
2018-11-28T07:10:58.534Z,24.00
2018-11-28T07:11:58.500Z,24.70
2018-11-28T07:12:58.497Z,25.10
2018-11-28T07:13:58.511Z,23.60
2018-11-28T07:14:58.485Z,24.00
2018-11-28T07:15:58.495Z,24.10
2018-11-28T07:16:58.476Z,24.40
2018-11-28T07:17:58.503Z,24.50
2018-11-28T07:18:58.476Z,23.60
2018-11-28T07:19:58.463Z,23.90
2018-11-28T07:20:58.667Z,23.90
2018-11-28T07:21:58.469Z,22.90
2018-11-28T07:22:58.462Z,23.20
2018-11-28T07:23:58.437Z,23.50
2018-11-28T07:24:58.433Z,23.80
2018-11-28T07:25:58.428Z,21.90
2018-11-28T07:26:58.420Z,23.30
2018-11-28T07:27:58.430Z,24.30
2018-11-28T07:28:58.434Z,24.00
2018-11-28T07:29:58.416Z,24.20
2018-11-28T07:30:58.409Z,22.80
2018-11-28T07:31:58.429Z,23.50
2018-11-28T07:32:58.423Z,23.40
2018-11-28T07:33:58.382Z,23.40
2018-11-28T07:34:58.393Z,24.00
2018-11-28T07:35:58.377Z,23.10
2018-11-28T07:36:58.387Z,24.90
2018-11-28T07:37:58.369Z,24.30
2018-11-28T07:38:58.370Z,23.80
2018-11-28T07:39:58.363Z,24.20
2018-11-28T07:40:58.359Z,24.40
2018-11-28T07:41:58.355Z,25.10
2018-11-28T07:42:58.341Z,23.80
2018-11-28T07:43:58.550Z,24.10
2018-11-28T07:44:58.322Z,24.80
2018-11-28T07:45:58.518Z,23.80
2018-11-28T07:46:58.514Z,24.30
2018-11-28T07:47:58.308Z,24.10
2018-11-28T07:48:58.301Z,25.20
2018-11-28T07:49:58.297Z,23.70
2018-11-28T07:50:58.294Z,24.90
2018-11-28T07:51:58.499Z,23.80
2018-11-28T07:52:58.289Z,24.20
2018-11-28T07:53:58.295Z,24.10
2018-11-28T07:54:58.272Z,23.90
2018-11-28T07:55:58.265Z,24.50
2018-11-28T07:56:58.257Z,23.90
2018-11-28T07:57:58.278Z,22.70
2018-11-28T07:58:58.260Z,24.00
2018-11-28T07:59:58.241Z,23.50
2018-11-28T08:00:58.238Z,23.20
2018-11-28T08:01:58.251Z,24.10
2018-11-28T08:02:58.244Z,23.40
2018-11-28T08:03:58.220Z,24.20
2018-11-28T08:04:58.227Z,23.90
2018-11-28T08:05:58.212Z,23.40
2018-11-28T08:06:58.215Z,23.60
2018-11-28T08:07:58.199Z,23.20
2018-11-28T08:08:58.206Z,24.00
2018-11-28T08:09:58.191Z,24.40
2018-11-28T08:10:58.187Z,24.90
2018-11-28T08:11:58.177Z,23.80
2018-11-28T08:12:58.184Z,24.40
2018-11-28T08:13:58.170Z,24.00
2018-11-28T08:14:58.166Z,23.10
2018-11-28T08:15:58.158Z,23.90
2018-11-28T08:16:58.168Z,24.60
2018-11-28T08:17:58.158Z,23.60
2018-11-28T08:18:58.153Z,25.00
2018-11-28T08:19:58.142Z,23.30
2018-11-28T08:20:58.134Z,24.20
2018-11-28T08:21:58.125Z,23.20
2018-11-28T08:22:58.121Z,24.20
2018-11-28T08:23:58.115Z,24.20
2018-11-28T08:24:58.113Z,24.40
2018-11-28T08:25:58.121Z,24.00
2018-11-28T08:26:58.101Z,24.90
2018-11-28T08:27:58.239Z,24.00
2018-11-28T08:28:58.106Z,23.80
2018-11-28T08:29:58.086Z,23.50
2018-11-28T08:30:58.077Z,23.20
2018-11-28T08:31:58.072Z,23.70
2018-11-28T08:32:58.085Z,24.10
2018-11-28T08:33:58.086Z,23.60
2018-11-28T08:34:58.082Z,23.80
2018-11-28T08:35:58.055Z,23.60
2018-11-28T08:36:58.047Z,24.00
2018-11-28T08:37:58.056Z,23.70
2018-11-28T08:38:58.036Z,23.80
2018-11-28T08:39:58.031Z,23.80
2018-11-28T08:40:58.032Z,24.40
2018-11-28T08:41:58.036Z,24.70
2018-11-28T08:42:58.034Z,24.00
2018-11-28T08:43:58.024Z,24.10
2018-11-28T08:44:58.006Z,24.80
2018-11-28T08:45:58.035Z,23.10
2018-11-28T08:46:58.006Z,24.00
2018-11-28T08:47:58.016Z,23.60
2018-11-28T08:48:57.988Z,23.30
2018-11-28T08:49:58.008Z,24.60
2018-11-28T08:50:57.986Z,23.20
2018-11-28T08:51:57.972Z,23.70
2018-11-28T08:52:57.998Z,23.40
2018-11-28T08:53:58.164Z,24.10
2018-11-28T08:54:57.955Z,22.70
2018-11-28T08:55:57.989Z,23.70
2018-11-28T08:56:57.947Z,22.50
2018-11-28T08:57:57.952Z,23.80
2018-11-28T08:58:57.933Z,23.60
2018-11-28T08:59:57.959Z,23.90
2018-11-28T09:00:57.927Z,24.30
2018-11-28T09:01:57.932Z,22.50
2018-11-28T09:02:57.942Z,23.30
2018-11-28T09:03:57.919Z,23.50
2018-11-28T09:04:57.926Z,23.80
2018-11-28T09:05:57.923Z,24.50
2018-11-28T09:06:57.896Z,23.40
2018-11-28T09:07:57.889Z,23.60
2018-11-28T09:08:57.894Z,22.80
2018-11-28T09:09:57.882Z,23.40
2018-11-28T09:10:57.875Z,23.70
2018-11-28T09:11:57.873Z,23.80
2018-11-28T09:13:03.539Z,24.30
2018-11-28T09:13:57.860Z,24.00
2018-11-28T09:14:57.860Z,24.40
2018-11-28T09:15:57.850Z,24.90
2018-11-28T09:16:57.846Z,23.40
2018-11-28T09:17:57.839Z,23.40
2018-11-28T09:18:57.844Z,23.00
2018-11-28T09:19:58.030Z,23.40
2018-11-28T09:20:57.826Z,23.40
2018-11-28T09:21:57.831Z,23.50
2018-11-28T09:22:58.024Z,22.40
2018-11-28T09:23:57.809Z,24.20
2018-11-28T09:24:57.814Z,24.40
2018-11-28T09:25:57.821Z,24.60
2018-11-28T09:26:57.814Z,23.60
2018-11-28T09:27:57.801Z,23.60
2018-11-28T09:28:57.785Z,24.10
2018-11-28T09:29:57.775Z,24.60
2018-11-28T09:30:57.774Z,24.10
2018-11-28T09:31:57.782Z,24.30
2018-11-28T09:32:57.790Z,24.70
2018-11-28T09:33:57.766Z,24.70
2018-11-28T09:34:57.768Z,24.30
2018-11-28T09:35:57.747Z,24.00
2018-11-28T09:36:57.740Z,23.20
2018-11-28T09:37:57.943Z,24.20
2018-11-28T09:38:57.741Z,24.40
2018-11-28T09:39:57.726Z,24.50
2018-11-28T09:40:57.731Z,23.90
2018-11-28T09:41:57.737Z,24.40
2018-11-28T09:42:57.711Z,23.70
2018-11-28T09:43:57.716Z,23.70
2018-11-28T09:44:57.712Z,23.90
2018-11-28T09:45:57.694Z,23.60
2018-11-28T09:46:57.701Z,23.00
2018-11-28T09:47:57.685Z,24.60
2018-11-28T09:48:57.688Z,23.30
2018-11-28T09:49:57.674Z,23.30
2018-11-28T09:50:57.671Z,22.90
2018-11-28T09:51:57.869Z,24.20
2018-11-28T09:52:57.669Z,23.90
2018-11-28T09:53:57.655Z,23.80
2018-11-28T09:54:57.653Z,23.90
2018-11-28T09:55:57.668Z,23.40
2018-11-28T09:56:57.669Z,23.00
2018-11-28T09:57:57.650Z,23.80
2018-11-28T09:58:57.630Z,23.50
2018-11-28T09:59:57.637Z,23.30
2018-11-28T10:00:57.633Z,22.90
2018-11-28T10:01:57.630Z,23.30
2018-11-28T10:02:57.613Z,24.00
2018-11-28T10:03:57.608Z,23.30
2018-11-28T10:05:02.574Z,23.70
2018-11-28T10:05:57.597Z,23.00
2018-11-28T10:06:57.593Z,23.50
2018-11-28T10:07:57.588Z,22.30
2018-11-28T10:08:57.582Z,23.80
2018-11-28T10:09:57.579Z,23.40
2018-11-28T10:10:57.571Z,23.90
2018-11-28T10:11:57.565Z,22.80
2018-11-28T10:12:57.589Z,23.00
2018-11-28T10:13:57.570Z,23.30
2018-11-28T10:14:57.555Z,22.40
2018-11-28T10:15:57.562Z,23.70
2018-11-28T10:16:57.919Z,23.50
2018-11-28T10:17:57.538Z,22.60
2018-11-28T10:18:57.553Z,23.60
2018-11-28T10:19:57.547Z,22.90
2018-11-28T10:20:57.522Z,24.30
2018-11-28T10:21:57.732Z,23.50
2018-11-28T10:22:57.513Z,23.50
2018-11-28T10:23:57.514Z,23.60
2018-11-28T10:24:57.501Z,24.40
2018-11-28T10:25:57.500Z,24.20
2018-11-28T10:26:57.505Z,24.00
2018-11-28T10:27:57.703Z,24.10
2018-11-28T10:28:57.485Z,24.50
2018-11-28T10:29:57.682Z,24.10
2018-11-28T10:30:57.473Z,24.00
2018-11-28T10:31:57.480Z,23.30
2018-11-28T10:32:57.498Z,23.40
2018-11-28T10:33:57.461Z,23.20
2018-11-28T10:34:57.469Z,23.10
2018-11-28T10:35:57.452Z,23.00
2018-11-28T10:36:57.489Z,23.30
2018-11-28T10:37:57.451Z,23.40
2018-11-28T10:38:57.441Z,23.90
2018-11-28T10:39:57.445Z,23.90
2018-11-28T10:40:57.439Z,22.20
2018-11-28T10:41:57.431Z,22.20
2018-11-28T10:42:57.439Z,23.30
2018-11-28T10:43:57.423Z,23.30
2018-11-28T10:44:57.419Z,22.90
2018-11-28T10:45:57.418Z,22.70
2018-11-28T10:46:57.401Z,23.20
2018-11-28T10:47:57.419Z,22.70
2018-11-28T10:48:57.388Z,23.60
2018-11-28T10:49:57.383Z,23.10
2018-11-28T10:50:57.395Z,23.10
2018-11-28T10:51:57.376Z,22.70
2018-11-28T10:52:57.382Z,22.50
2018-11-28T10:53:57.419Z,22.90
2018-11-28T10:54:57.361Z,23.10
2018-11-28T10:55:57.367Z,23.30
2018-11-28T10:56:57.370Z,23.70
2018-11-28T10:57:57.363Z,22.30
2018-11-28T10:58:57.340Z,22.10
2018-11-28T10:59:57.340Z,23.00
2018-11-28T11:00:57.381Z,23.20
2018-11-28T11:01:57.339Z,21.70
2018-11-28T11:02:57.320Z,21.80
2018-11-28T11:03:57.328Z,22.30
2018-11-28T11:04:57.334Z,21.70
2018-11-28T11:05:57.319Z,23.00
2018-11-28T11:06:57.312Z,21.70
2018-11-28T11:07:57.308Z,21.10
2018-11-28T11:08:57.329Z,22.10
2018-11-28T11:09:57.287Z,22.30
2018-11-28T11:10:57.310Z,22.20
2018-11-28T11:11:57.279Z,22.60
2018-11-28T11:12:57.292Z,21.20
2018-11-28T11:13:57.270Z,22.00
2018-11-28T11:14:57.278Z,21.70
2018-11-28T11:15:57.279Z,22.00
2018-11-28T11:16:57.256Z,22.20
2018-11-28T11:18:02.134Z,21.60
2018-11-28T11:18:57.245Z,22.10
2018-11-28T11:19:57.241Z,21.70
2018-11-28T11:20:57.239Z,21.80
2018-11-28T11:21:57.235Z,22.00
2018-11-28T11:22:57.227Z,21.20
2018-11-28T11:23:57.238Z,21.20
2018-11-28T11:24:57.232Z,22.30
2018-11-28T11:25:57.219Z,20.90
2018-11-28T11:26:57.221Z,21.60
2018-11-28T11:27:57.215Z,21.70
2018-11-28T11:28:57.216Z,20.60
2018-11-28T11:29:57.223Z,21.70
2018-11-28T11:30:57.205Z,20.30
2018-11-28T11:31:57.201Z,21.30
2018-11-28T11:32:57.183Z,21.40
2018-11-28T11:33:57.212Z,21.40
2018-11-28T11:34:57.171Z,21.00
2018-11-28T11:35:57.171Z,21.00
2018-11-28T11:36:57.176Z,20.80
2018-11-28T11:37:57.158Z,20.00
2018-11-28T11:38:57.168Z,20.70
2018-11-28T11:39:57.372Z,20.10
2018-11-28T11:40:57.159Z,21.20
2018-11-28T11:41:57.154Z,20.30
2018-11-28T11:42:57.134Z,21.20
2018-11-28T11:43:57.141Z,20.10
2018-11-28T11:44:57.139Z,20.40
2018-11-28T11:45:57.120Z,20.10
2018-11-28T11:46:57.140Z,20.60
2018-11-28T11:47:57.112Z,20.70
2018-11-28T11:48:57.117Z,20.60
2018-11-28T11:49:57.128Z,21.20
2018-11-28T11:50:57.114Z,21.30
2018-11-28T11:51:57.104Z,20.70
2018-11-28T11:52:57.098Z,20.70
2018-11-28T11:53:57.095Z,19.50
2018-11-28T11:54:57.078Z,20.50
2018-11-28T11:55:57.094Z,20.30
2018-11-28T11:56:57.082Z,19.60
2018-11-28T11:57:57.281Z,20.20
2018-11-28T11:58:57.265Z,18.80
2018-11-28T11:59:57.056Z,20.40
2018-11-28T12:00:57.063Z,20.20
2018-11-28T12:01:57.059Z,20.50
2018-11-28T12:02:57.052Z,20.60
2018-11-28T12:03:57.099Z,19.40
2018-11-28T12:04:57.046Z,20.00
2018-11-28T12:05:57.030Z,19.80
2018-11-28T12:06:57.039Z,20.30
2018-11-28T12:07:57.023Z,19.60
2018-11-28T12:08:57.092Z,20.60
2018-11-28T12:09:57.007Z,20.10
2018-11-28T12:10:57.005Z,20.10
2018-11-28T12:11:56.998Z,19.80
2018-11-28T12:12:56.995Z,20.60
2018-11-28T12:13:57.190Z,20.20
2018-11-28T12:14:56.986Z,19.40
2018-11-28T12:15:57.038Z,19.30
2018-11-28T12:16:56.977Z,20.00
2018-11-28T12:17:56.981Z,20.10
2018-11-28T12:18:56.979Z,19.80
2018-11-28T12:19:57.166Z,21.00
2018-11-28T12:20:56.956Z,20.00
2018-11-28T12:21:56.963Z,19.60
2018-11-28T12:22:56.962Z,20.40
2018-11-28T12:23:57.161Z,20.10
2018-11-28T12:24:56.942Z,19.50
2018-11-28T12:25:56.945Z,19.60
2018-11-28T12:26:56.940Z,18.90
2018-11-28T12:27:56.936Z,18.70
2018-11-28T12:28:56.934Z,19.00
2018-11-28T12:29:57.117Z,19.00
2018-11-28T12:30:56.915Z,18.40
2018-11-28T12:31:57.109Z,19.30
2018-11-28T12:32:56.903Z,19.10
2018-11-28T12:33:56.911Z,19.80
2018-11-28T12:34:56.907Z,19.50
2018-11-28T12:35:56.890Z,19.30
2018-11-28T12:36:56.895Z,19.60
2018-11-28T12:37:56.889Z,19.40
2018-11-28T12:38:56.875Z,18.60
2018-11-28T12:39:56.870Z,19.50
2018-11-28T12:40:56.867Z,19.10
2018-11-28T12:41:56.889Z,18.90
2018-11-28T12:42:56.871Z,20.20
2018-11-28T12:43:56.864Z,18.80
2018-11-28T12:44:56.850Z,18.80
2018-11-28T12:45:56.855Z,19.40
2018-11-28T12:46:56.856Z,18.40
2018-11-28T12:47:56.855Z,18.60
2018-11-28T12:48:56.864Z,18.40
2018-11-28T12:49:56.842Z,18.30
2018-11-28T12:50:56.847Z,18.70
2018-11-28T12:51:56.829Z,19.30
2018-11-28T12:52:56.828Z,18.30
2018-11-28T12:53:57.023Z,19.70